Search for airport 
image banner adimage banner adimage banner ad
image banner ad

KBAB - Beale Afb

Located in Marysville, United States

ICAO - BAB, IATA - BAB

Data provided by Airmate  

General information

Coordinates: N39°8'10" W121°26'12"
Elevation is 113 feet MSL.
Magnetic variation is 16° East
View others Airports in California

Operational data

Special qualification required
Current time UTC:
Current local time:
Weather
METAR: KBAB 240758Z AUTO 14008KT 10SM CLR 20/12 A2991 RMK AO2 SLP131 T01950120 403190146
TAF: TAF KBAB 240300Z 2403/2509 15009KT 9999 SKC QNH2981INS BECMG 2415/2416 17009KT 9999 SKC QNH2987INS BECMG 2501/2502 16009KT 9999 SCT120 QNH2988INS TX33/2500Z TN16/2412Z
View NOTAMs / SUP AIP / TFR affecting this airport [VIEW]
Communications frequencies: [VIEW]

Runways:

RWY identifierQFULength (ft)Width (ft)SurfaceLDA (ft)
15162°12001300CONC
33342°12001300CONC

Airport contact information

Address: Marysville United States

Other aviation service providers

Flight schools

Beale Aero Club & Flight Training Center

Beale Aero Club & Flight Training Center

Satellite view of KBAB